sensor_id;sensor_type;location;lat;lon;timestamp;P1;durP1;ratioP1;P2;durP2;ratioP2
11447;SDS011;43755;49.736;8.734;2023-05-07T00:00:41;2.80;;;2.60;;
11447;SDS011;43755;49.736;8.734;2023-05-07T00:02:43;3.08;;;2.50;;
11447;SDS011;43755;49.736;8.734;2023-05-07T00:04:45;2.65;;;2.45;;
11447;SDS011;43755;49.736;8.734;2023-05-07T00:06:47;2.90;;;2.30;;
11447;SDS011;43755;49.736;8.734;2023-05-07T00:08:49;2.50;;;2.30;;
11447;SDS011;43755;49.736;8.734;2023-05-07T00:10:51;2.28;;;2.17;;
11447;SDS011;43755;49.736;8.734;2023-05-07T00:12:52;2.63;;;2.40;;
11447;SDS011;43755;49.736;8.734;2023-05-07T00:14:54;4.28;;;2.15;;
11447;SDS011;43755;49.736;8.734;2023-05-07T00:16:55;3.08;;;2.50;;
11447;SDS011;43755;49.736;8.734;2023-05-07T00:18:57;2.40;;;2.20;;
11447;SDS011;43755;49.736;8.734;2023-05-07T00:20:58;2.60;;;2.40;;
11447;SDS011;43755;49.736;8.734;2023-05-07T00:23:01;2.38;;;2.13;;
11447;SDS011;43755;49.736;8.734;2023-05-07T00:25:03;2.92;;;2.58;;
11447;SDS011;43755;49.736;8.734;2023-05-07T00:27:05;5.47;;;2.60;;
11447;SDS011;43755;49.736;8.734;2023-05-07T00:29:06;4.15;;;2.50;;
11447;SDS011;43755;49.736;8.734;2023-05-07T00:31:07;2.50;;;2.30;;
11447;SDS011;43755;49.736;8.734;2023-05-07T00:33:09;3.97;;;2.75;;
11447;SDS011;43755;49.736;8.734;2023-05-07T00:35:10;3.20;;;2.20;;
11447;SDS011;43755;49.736;8.734;2023-05-07T00:37:12;2.55;;;2.35;;
11447;SDS011;43755;49.736;8.734;2023-05-07T00:39:15;3.38;;;2.55;;
11447;SDS011;43755;49.736;8.734;2023-05-07T00:41:16;3.47;;;2.50;;
11447;SDS011;43755;49.736;8.734;2023-05-07T00:43:17;2.85;;;2.15;;
11447;SDS011;43755;49.736;8.734;2023-05-07T00:45:19;2.17;;;2.08;;
11447;SDS011;43755;49.736;8.734;2023-05-07T00:47:20;2.80;;;2.60;;
11447;SDS011;43755;49.736;8.734;2023-05-07T00:49:22;3.40;;;2.45;;
11447;SDS011;43755;49.736;8.734;2023-05-07T00:51:24;2.50;;;2.30;;
11447;SDS011;43755;49.736;8.734;2023-05-07T00:53:27;2.65;;;2.40;;
11447;SDS011;43755;49.736;8.734;2023-05-07T00:55:30;2.50;;;2.40;;
11447;SDS011;43755;49.736;8.734;2023-05-07T00:57:32;2.95;;;2.75;;
11447;SDS011;43755;49.736;8.734;2023-05-07T00:59:37;2.33;;;2.13;;
11447;SDS011;43755;49.736;8.734;2023-05-07T01:01:39;3.28;;;2.70;;
11447;SDS011;43755;49.736;8.734;2023-05-07T01:03:41;3.10;;;2.50;;
11447;SDS011;43755;49.736;8.734;2023-05-07T01:05:42;3.95;;;2.40;;
11447;SDS011;43755;49.736;8.734;2023-05-07T01:07:45;2.53;;;2.40;;
11447;SDS011;43755;49.736;8.734;2023-05-07T01:09:47;2.72;;;2.20;;
11447;SDS011;43755;49.736;8.734;2023-05-07T01:11:50;3.13;;;2.47;;
11447;SDS011;43755;49.736;8.734;2023-05-07T01:13:52;4.13;;;2.35;;
11447;SDS011;43755;49.736;8.734;2023-05-07T01:15:54;2.75;;;2.55;;
11447;SDS011;43755;49.736;8.734;2023-05-07T01:17:55;3.25;;;2.50;;
11447;SDS011;43755;49.736;8.734;2023-05-07T01:19:57;2.30;;;2.20;;
11447;SDS011;43755;49.736;8.734;2023-05-07T01:22:01;2.95;;;2.35;;
11447;SDS011;43755;49.736;8.734;2023-05-07T01:24:09;2.80;;;2.60;;
11447;SDS011;43755;49.736;8.734;2023-05-07T01:26:11;3.78;;;2.50;;
11447;SDS011;43755;49.736;8.734;2023-05-07T01:28:13;2.70;;;2.50;;
11447;SDS011;43755;49.736;8.734;2023-05-07T01:30:14;3.40;;;2.70;;
11447;SDS011;43755;49.736;8.734;2023-05-07T01:32:17;3.25;;;2.35;;
11447;SDS011;43755;49.736;8.734;2023-05-07T01:34:23;2.70;;;2.50;;
11447;SDS011;43755;49.736;8.734;2023-05-07T01:36:26;2.50;;;2.30;;
11447;SDS011;43755;49.736;8.734;2023-05-07T01:38:30;2.55;;;2.40;;
11447;SDS011;43755;49.736;8.734;2023-05-07T01:40:33;3.40;;;2.50;;
11447;SDS011;43755;49.736;8.734;2023-05-07T01:42:35;2.25;;;2.15;;
11447;SDS011;43755;49.736;8.734;2023-05-07T01:44:37;3.00;;;2.55;;
11447;SDS011;43755;49.736;8.734;2023-05-07T01:46:38;2.42;;;2.22;;
11447;SDS011;43755;49.736;8.734;2023-05-07T01:48:40;2.65;;;2.40;;
11447;SDS011;43755;49.736;8.734;2023-05-07T01:50:45;3.10;;;2.80;;
11447;SDS011;43755;49.736;8.734;2023-05-07T01:52:49;4.00;;;3.00;;
11447;SDS011;43755;49.736;8.734;2023-05-07T01:54:51;3.40;;;2.67;;
11447;SDS011;43755;49.736;8.734;2023-05-07T01:56:55;4.10;;;2.95;;
11447;SDS011;43755;49.736;8.734;2023-05-07T01:58:57;2.90;;;2.70;;
11447;SDS011;43755;49.736;8.734;2023-05-07T02:00:58;2.80;;;2.60;;
11447;SDS011;43755;49.736;8.734;2023-05-07T02:02:59;3.13;;;2.67;;
11447;SDS011;43755;49.736;8.734;2023-05-07T02:05:01;2.70;;;2.45;;
11447;SDS011;43755;49.736;8.734;2023-05-07T02:07:02;2.63;;;2.42;;
11447;SDS011;43755;49.736;8.734;2023-05-07T02:09:04;2.70;;;2.40;;
11447;SDS011;43755;49.736;8.734;2023-05-07T02:11:05;4.43;;;2.78;;
11447;SDS011;43755;49.736;8.734;2023-05-07T02:13:09;3.97;;;2.20;;
11447;SDS011;43755;49.736;8.734;2023-05-07T02:15:11;5.15;;;2.58;;
11447;SDS011;43755;49.736;8.734;2023-05-07T02:17:12;2.72;;;2.30;;
11447;SDS011;43755;49.736;8.734;2023-05-07T02:19:13;4.13;;;2.30;;
11447;SDS011;43755;49.736;8.734;2023-05-07T02:21:15;2.97;;;2.58;;
11447;SDS011;43755;49.736;8.734;2023-05-07T02:23:16;2.95;;;2.53;;
11447;SDS011;43755;49.736;8.734;2023-05-07T02:25:18;2.72;;;2.53;;
11447;SDS011;43755;49.736;8.734;2023-05-07T02:27:19;2.80;;;2.60;;
11447;SDS011;43755;49.736;8.734;2023-05-07T02:29:22;4.90;;;2.53;;
11447;SDS011;43755;49.736;8.734;2023-05-07T02:31:23;5.20;;;2.75;;
11447;SDS011;43755;49.736;8.734;2023-05-07T02:33:24;2.30;;;2.20;;
11447;SDS011;43755;49.736;8.734;2023-05-07T02:35:26;2.90;;;2.70;;
11447;SDS011;43755;49.736;8.734;2023-05-07T02:37:27;2.90;;;2.60;;
11447;SDS011;43755;49.736;8.734;2023-05-07T02:39:29;3.53;;;2.70;;
11447;SDS011;43755;49.736;8.734;2023-05-07T02:41:31;2.85;;;2.53;;
11447;SDS011;43755;49.736;8.734;2023-05-07T02:43:32;2.88;;;2.72;;
11447;SDS011;43755;49.736;8.734;2023-05-07T02:45:35;2.50;;;2.40;;
11447;SDS011;43755;49.736;8.734;2023-05-07T02:47:37;3.72;;;2.60;;
11447;SDS011;43755;49.736;8.734;2023-05-07T02:49:38;3.17;;;2.72;;
11447;SDS011;43755;49.736;8.734;2023-05-07T02:51:40;2.90;;;2.70;;
11447;SDS011;43755;49.736;8.734;2023-05-07T02:53:41;5.53;;;2.85;;
11447;SDS011;43755;49.736;8.734;2023-05-07T02:55:42;4.18;;;2.30;;
11447;SDS011;43755;49.736;8.734;2023-05-07T02:57:44;3.05;;;2.60;;
11447;SDS011;43755;49.736;8.734;2023-05-07T02:59:46;2.80;;;2.60;;
11447;SDS011;43755;49.736;8.734;2023-05-07T03:01:49;4.22;;;2.55;;
11447;SDS011;43755;49.736;8.734;2023-05-07T03:03:50;4.13;;;2.60;;
11447;SDS011;43755;49.736;8.734;2023-05-07T03:05:51;2.70;;;2.60;;
11447;SDS011;43755;49.736;8.734;2023-05-07T03:07:53;2.63;;;2.42;;
11447;SDS011;43755;49.736;8.734;2023-05-07T03:09:54;3.15;;;2.80;;
11447;SDS011;43755;49.736;8.734;2023-05-07T03:11:56;2.42;;;2.33;;
11447;SDS011;43755;49.736;8.734;2023-05-07T03:13:57;4.55;;;2.78;;
11447;SDS011;43755;49.736;8.734;2023-05-07T03:15:59;3.03;;;2.60;;
11447;SDS011;43755;49.736;8.734;2023-05-07T03:18:02;4.28;;;2.72;;
11447;SDS011;43755;49.736;8.734;2023-05-07T03:20:03;3.00;;;2.70;;
11447;SDS011;43755;49.736;8.734;2023-05-07T03:22:06;3.30;;;3.00;;
11447;SDS011;43755;49.736;8.734;2023-05-07T03:24:07;2.50;;;2.30;;
11447;SDS011;43755;49.736;8.734;2023-05-07T03:26:09;2.85;;;2.65;;
11447;SDS011;43755;49.736;8.734;2023-05-07T03:28:10;2.80;;;2.60;;
11447;SDS011;43755;49.736;8.734;2023-05-07T03:30:12;3.22;;;2.63;;
11447;SDS011;43755;49.736;8.734;2023-05-07T03:32:13;3.90;;;2.42;;
11447;SDS011;43755;49.736;8.734;2023-05-07T03:34:16;2.90;;;2.67;;
11447;SDS011;43755;49.736;8.734;2023-05-07T03:36:22;3.08;;;2.72;;
11447;SDS011;43755;49.736;8.734;2023-05-07T03:38:24;2.88;;;2.60;;
11447;SDS011;43755;49.736;8.734;2023-05-07T03:40:25;3.35;;;2.90;;
11447;SDS011;43755;49.736;8.734;2023-05-07T03:42:27;2.83;;;2.65;;
11447;SDS011;43755;49.736;8.734;2023-05-07T03:44:29;2.92;;;2.60;;
11447;SDS011;43755;49.736;8.734;2023-05-07T03:46:31;2.47;;;2.28;;
11447;SDS011;43755;49.736;8.734;2023-05-07T03:48:32;2.80;;;2.60;;
11447;SDS011;43755;49.736;8.734;2023-05-07T03:50:35;3.15;;;2.80;;
11447;SDS011;43755;49.736;8.734;2023-05-07T03:52:37;2.80;;;2.60;;
11447;SDS011;43755;49.736;8.734;2023-05-07T03:54:38;3.10;;;2.80;;
11447;SDS011;43755;49.736;8.734;2023-05-07T03:56:39;2.72;;;2.55;;
11447;SDS011;43755;49.736;8.734;2023-05-07T03:58:41;4.10;;;2.60;;
11447;SDS011;43755;49.736;8.734;2023-05-07T04:00:42;3.00;;;2.80;;
11447;SDS011;43755;49.736;8.734;2023-05-07T04:02:44;4.47;;;2.83;;
11447;SDS011;43755;49.736;8.734;2023-05-07T04:04:45;2.63;;;2.53;;
11447;SDS011;43755;49.736;8.734;2023-05-07T04:06:48;3.30;;;3.00;;
11447;SDS011;43755;49.736;8.734;2023-05-07T04:08:49;3.75;;;2.70;;
11447;SDS011;43755;49.736;8.734;2023-05-07T04:10:54;2.83;;;2.63;;
11447;SDS011;43755;49.736;8.734;2023-05-07T04:12:55;2.58;;;2.47;;
11447;SDS011;43755;49.736;8.734;2023-05-07T04:14:57;3.20;;;2.90;;
11447;SDS011;43755;49.736;8.734;2023-05-07T04:16:59;3.10;;;2.80;;
11447;SDS011;43755;49.736;8.734;2023-05-07T04:19:00;2.83;;;2.63;;
11447;SDS011;43755;49.736;8.734;2023-05-07T04:21:02;2.90;;;2.63;;
11447;SDS011;43755;49.736;8.734;2023-05-07T04:23:04;3.95;;;3.22;;
11447;SDS011;43755;49.736;8.734;2023-05-07T04:25:07;3.55;;;3.25;;
11447;SDS011;43755;49.736;8.734;2023-05-07T04:27:10;3.25;;;2.95;;
11447;SDS011;43755;49.736;8.734;2023-05-07T04:29:12;3.50;;;3.30;;
11447;SDS011;43755;49.736;8.734;2023-05-07T04:31:13;3.17;;;2.55;;
11447;SDS011;43755;49.736;8.734;2023-05-07T04:33:15;3.28;;;3.08;;
11447;SDS011;43755;49.736;8.734;2023-05-07T04:35:17;3.20;;;2.92;;
11447;SDS011;43755;49.736;8.734;2023-05-07T04:37:18;3.13;;;2.80;;
11447;SDS011;43755;49.736;8.734;2023-05-07T04:39:21;3.85;;;2.95;;
11447;SDS011;43755;49.736;8.734;2023-05-07T04:41:22;4.55;;;2.75;;
11447;SDS011;43755;49.736;8.734;2023-05-07T04:43:23;3.22;;;2.92;;
11447;SDS011;43755;49.736;8.734;2023-05-07T04:45:25;2.83;;;2.63;;
11447;SDS011;43755;49.736;8.734;2023-05-07T04:47:27;2.95;;;2.75;;
11447;SDS011;43755;49.736;8.734;2023-05-07T04:49:28;4.25;;;2.88;;
11447;SDS011;43755;49.736;8.734;2023-05-07T04:51:29;2.95;;;2.75;;
11447;SDS011;43755;49.736;8.734;2023-05-07T04:53:32;3.20;;;2.92;;
11447;SDS011;43755;49.736;8.734;2023-05-07T04:55:35;4.15;;;2.60;;
11447;SDS011;43755;49.736;8.734;2023-05-07T04:57:36;2.88;;;2.67;;
11447;SDS011;43755;49.736;8.734;2023-05-07T04:59:39;2.40;;;2.30;;
11447;SDS011;43755;49.736;8.734;2023-05-07T05:01:40;2.95;;;2.47;;
11447;SDS011;43755;49.736;8.734;2023-05-07T05:03:42;2.70;;;2.50;;
11447;SDS011;43755;49.736;8.734;2023-05-07T05:05:43;2.67;;;2.47;;
11447;SDS011;43755;49.736;8.734;2023-05-07T05:07:45;2.63;;;2.50;;
11447;SDS011;43755;49.736;8.734;2023-05-07T05:09:46;3.17;;;2.42;;
11447;SDS011;43755;49.736;8.734;2023-05-07T05:11:49;2.78;;;2.58;;
11447;SDS011;43755;49.736;8.734;2023-05-07T05:13:50;2.53;;;2.30;;
11447;SDS011;43755;49.736;8.734;2023-05-07T05:15:52;2.72;;;2.53;;
11447;SDS011;43755;49.736;8.734;2023-05-07T05:17:53;2.50;;;2.33;;
11447;SDS011;43755;49.736;8.734;2023-05-07T05:19:54;2.50;;;2.30;;
11447;SDS011;43755;49.736;8.734;2023-05-07T05:21:56;2.50;;;2.30;;
11447;SDS011;43755;49.736;8.734;2023-05-07T05:23:57;2.50;;;2.30;;
11447;SDS011;43755;49.736;8.734;2023-05-07T05:25:59;3.03;;;2.40;;
11447;SDS011;43755;49.736;8.734;2023-05-07T05:28:02;2.58;;;2.30;;
11447;SDS011;43755;49.736;8.734;2023-05-07T05:30:03;2.33;;;2.22;;
11447;SDS011;43755;49.736;8.734;2023-05-07T05:32:06;2.53;;;2.30;;
11447;SDS011;43755;49.736;8.734;2023-05-07T05:34:07;2.30;;;2.20;;
11447;SDS011;43755;49.736;8.734;2023-05-07T05:36:09;2.30;;;2.20;;
11447;SDS011;43755;49.736;8.734;2023-05-07T05:38:11;3.53;;;2.53;;
11447;SDS011;43755;49.736;8.734;2023-05-07T05:40:13;3.20;;;2.38;;
11447;SDS011;43755;49.736;8.734;2023-05-07T05:42:14;2.42;;;2.22;;
11447;SDS011;43755;49.736;8.734;2023-05-07T05:44:17;2.45;;;2.33;;
11447;SDS011;43755;49.736;8.734;2023-05-07T05:46:18;3.25;;;2.45;;
11447;SDS011;43755;49.736;8.734;2023-05-07T05:48:20;3.50;;;2.40;;
11447;SDS011;43755;49.736;8.734;2023-05-07T05:50:21;2.38;;;2.17;;
11447;SDS011;43755;49.736;8.734;2023-05-07T05:52:23;2.40;;;2.17;;
11447;SDS011;43755;49.736;8.734;2023-05-07T05:54:25;2.70;;;1.80;;
11447;SDS011;43755;49.736;8.734;2023-05-07T05:56:26;2.38;;;1.92;;
11447;SDS011;43755;49.736;8.734;2023-05-07T05:58:27;2.00;;;1.90;;
11447;SDS011;43755;49.736;8.734;2023-05-07T06:00:30;2.20;;;2.10;;
11447;SDS011;43755;49.736;8.734;2023-05-07T06:02:32;2.10;;;2.00;;
11447;SDS011;43755;49.736;8.734;2023-05-07T06:04:34;4.35;;;2.13;;
11447;SDS011;43755;49.736;8.734;2023-05-07T06:06:35;3.13;;;2.00;;
11447;SDS011;43755;49.736;8.734;2023-05-07T06:08:37;2.20;;;2.10;;
11447;SDS011;43755;49.736;8.734;2023-05-07T06:10:38;2.53;;;2.38;;
11447;SDS011;43755;49.736;8.734;2023-05-07T06:12:40;2.17;;;2.05;;
11447;SDS011;43755;49.736;8.734;2023-05-07T06:14:42;4.30;;;2.30;;
11447;SDS011;43755;49.736;8.734;2023-05-07T06:16:45;2.70;;;2.50;;
11447;SDS011;43755;49.736;8.734;2023-05-07T06:18:46;1.92;;;1.83;;
11447;SDS011;43755;49.736;8.734;2023-05-07T06:20:48;2.35;;;2.15;;
11447;SDS011;43755;49.736;8.734;2023-05-07T06:22:49;2.50;;;2.00;;
11447;SDS011;43755;49.736;8.734;2023-05-07T06:24:50;2.72;;;2.33;;
11447;SDS011;43755;49.736;8.734;2023-05-07T06:26:52;2.55;;;2.10;;
11447;SDS011;43755;49.736;8.734;2023-05-07T06:28:53;2.65;;;2.10;;
11447;SDS011;43755;49.736;8.734;2023-05-07T06:30:55;2.38;;;2.17;;
11447;SDS011;43755;49.736;8.734;2023-05-07T06:32:57;2.00;;;1.90;;
11447;SDS011;43755;49.736;8.734;2023-05-07T06:34:59;2.42;;;2.20;;
11447;SDS011;43755;49.736;8.734;2023-05-07T06:37:00;2.10;;;2.00;;
11447;SDS011;43755;49.736;8.734;2023-05-07T06:39:02;3.50;;;2.40;;
11447;SDS011;43755;49.736;8.734;2023-05-07T06:41:05;3.05;;;2.40;;
11447;SDS011;43755;49.736;8.734;2023-05-07T06:43:07;3.75;;;2.30;;
11447;SDS011;43755;49.736;8.734;2023-05-07T06:45:09;2.97;;;2.13;;
11447;SDS011;43755;49.736;8.734;2023-05-07T06:47:11;2.80;;;1.83;;
11447;SDS011;43755;49.736;8.734;2023-05-07T06:49:14;1.88;;;1.77;;
11447;SDS011;43755;49.736;8.734;2023-05-07T06:51:16;3.13;;;2.35;;
11447;SDS011;43755;49.736;8.734;2023-05-07T06:53:17;3.15;;;2.20;;
11447;SDS011;43755;49.736;8.734;2023-05-07T06:55:18;2.30;;;2.10;;
11447;SDS011;43755;49.736;8.734;2023-05-07T06:57:20;2.42;;;2.20;;
11447;SDS011;43755;49.736;8.734;2023-05-07T06:59:21;3.35;;;2.17;;
11447;SDS011;43755;49.736;8.734;2023-05-07T07:01:24;3.47;;;2.15;;
11447;SDS011;43755;49.736;8.734;2023-05-07T07:03:25;2.28;;;2.10;;
11447;SDS011;43755;49.736;8.734;2023-05-07T07:05:28;3.38;;;2.10;;
11447;SDS011;43755;49.736;8.734;2023-05-07T07:07:29;2.30;;;2.10;;
11447;SDS011;43755;49.736;8.734;2023-05-07T07:09:31;3.20;;;2.00;;
11447;SDS011;43755;49.736;8.734;2023-05-07T07:11:32;2.47;;;2.17;;
11447;SDS011;43755;49.736;8.734;2023-05-07T07:13:34;2.55;;;2.33;;
11447;SDS011;43755;49.736;8.734;2023-05-07T07:15:35;2.20;;;2.10;;
11447;SDS011;43755;49.736;8.734;2023-05-07T07:17:36;3.80;;;2.40;;
11447;SDS011;43755;49.736;8.734;2023-05-07T07:19:38;2.10;;;2.00;;
11447;SDS011;43755;49.736;8.734;2023-05-07T07:21:41;2.25;;;2.00;;
11447;SDS011;43755;49.736;8.734;2023-05-07T07:23:42;2.17;;;1.77;;
11447;SDS011;43755;49.736;8.734;2023-05-07T07:25:43;2.58;;;1.80;;
11447;SDS011;43755;49.736;8.734;2023-05-07T07:27:45;3.45;;;2.00;;
11447;SDS011;43755;49.736;8.734;2023-05-07T07:29:46;1.83;;;1.73;;
11447;SDS011;43755;49.736;8.734;2023-05-07T07:31:48;1.77;;;1.67;;
11447;SDS011;43755;49.736;8.734;2023-05-07T07:33:49;2.25;;;2.05;;
11447;SDS011;43755;49.736;8.734;2023-05-07T07:35:51;2.63;;;1.90;;
11447;SDS011;43755;49.736;8.734;2023-05-07T07:37:53;2.13;;;1.92;;
11447;SDS011;43755;49.736;8.734;2023-05-07T07:39:55;2.72;;;2.10;;
11447;SDS011;43755;49.736;8.734;2023-05-07T07:41:56;2.85;;;1.83;;
11447;SDS011;43755;49.736;8.734;2023-05-07T07:43:58;3.13;;;2.00;;
11447;SDS011;43755;49.736;8.734;2023-05-07T07:45:59;2.20;;;2.00;;
11447;SDS011;43755;49.736;8.734;2023-05-07T07:48:00;2.75;;;2.08;;
11447;SDS011;43755;49.736;8.734;2023-05-07T07:50:02;1.90;;;1.80;;
11447;SDS011;43755;49.736;8.734;2023-05-07T07:52:04;3.22;;;2.10;;
11447;SDS011;43755;49.736;8.734;2023-05-07T07:54:06;2.15;;;1.95;;
11447;SDS011;43755;49.736;8.734;2023-05-07T07:56:08;1.88;;;1.77;;
11447;SDS011;43755;49.736;8.734;2023-05-07T07:58:09;4.35;;;1.98;;
11447;SDS011;43755;49.736;8.734;2023-05-07T08:00:11;2.10;;;1.90;;
11447;SDS011;43755;49.736;8.734;2023-05-07T08:02:13;1.83;;;1.73;;
11447;SDS011;43755;49.736;8.734;2023-05-07T08:04:15;1.90;;;1.80;;
11447;SDS011;43755;49.736;8.734;2023-05-07T08:06:16;1.80;;;1.70;;
11447;SDS011;43755;49.736;8.734;2023-05-07T08:08:17;3.60;;;2.20;;
11447;SDS011;43755;49.736;8.734;2023-05-07T08:10:21;2.08;;;1.98;;
11447;SDS011;43755;49.736;8.734;2023-05-07T08:12:22;2.13;;;1.95;;
11447;SDS011;43755;49.736;8.734;2023-05-07T08:14:24;3.00;;;2.07;;
11447;SDS011;43755;49.736;8.734;2023-05-07T08:16:25;2.25;;;2.10;;
11447;SDS011;43755;49.736;8.734;2023-05-07T08:18:28;2.95;;;2.20;;
11447;SDS011;43755;49.736;8.734;2023-05-07T08:20:29;1.95;;;1.85;;
11447;SDS011;43755;49.736;8.734;2023-05-07T08:22:31;2.35;;;1.90;;
11447;SDS011;43755;49.736;8.734;2023-05-07T08:24:32;2.75;;;2.03;;
11447;SDS011;43755;49.736;8.734;2023-05-07T08:26:35;2.10;;;2.00;;
11447;SDS011;43755;49.736;8.734;2023-05-07T08:28:38;3.33;;;2.10;;
11447;SDS011;43755;49.736;8.734;2023-05-07T08:30:40;3.00;;;2.05;;
11447;SDS011;43755;49.736;8.734;2023-05-07T08:32:41;2.23;;;2.00;;
11447;SDS011;43755;49.736;8.734;2023-05-07T08:34:43;2.40;;;2.20;;
11447;SDS011;43755;49.736;8.734;2023-05-07T08:36:44;2.58;;;2.28;;
11447;SDS011;43755;49.736;8.734;2023-05-07T08:38:48;2.17;;;2.07;;
11447;SDS011;43755;49.736;8.734;2023-05-07T08:40:49;2.40;;;2.25;;
11447;SDS011;43755;49.736;8.734;2023-05-07T08:42:52;5.37;;;2.40;;
11447;SDS011;43755;49.736;8.734;2023-05-07T08:44:54;2.43;;;2.20;;
11447;SDS011;43755;49.736;8.734;2023-05-07T08:46:59;2.33;;;2.20;;
11447;SDS011;43755;49.736;8.734;2023-05-07T08:49:02;2.00;;;1.90;;
11447;SDS011;43755;49.736;8.734;2023-05-07T08:51:04;3.40;;;2.40;;
11447;SDS011;43755;49.736;8.734;2023-05-07T08:53:06;2.43;;;2.23;;
11447;SDS011;43755;49.736;8.734;2023-05-07T08:55:08;2.40;;;2.30;;
11447;SDS011;43755;49.736;8.734;2023-05-07T08:57:10;3.92;;;2.00;;
11447;SDS011;43755;49.736;8.734;2023-05-07T08:59:13;2.38;;;2.17;;
11447;SDS011;43755;49.736;8.734;2023-05-07T09:01:15;2.23;;;2.13;;
11447;SDS011;43755;49.736;8.734;2023-05-07T09:03:18;2.77;;;2.57;;
11447;SDS011;43755;49.736;8.734;2023-05-07T09:05:19;2.47;;;2.30;;
11447;SDS011;43755;49.736;8.734;2023-05-07T09:07:21;2.45;;;2.25;;
11447;SDS011;43755;49.736;8.734;2023-05-07T09:09:23;2.40;;;2.30;;
11447;SDS011;43755;49.736;8.734;2023-05-07T09:11:25;2.50;;;2.30;;
11447;SDS011;43755;49.736;8.734;2023-05-07T09:13:26;2.57;;;2.37;;
11447;SDS011;43755;49.736;8.734;2023-05-07T09:15:29;2.40;;;2.20;;
11447;SDS011;43755;49.736;8.734;2023-05-07T09:17:31;2.37;;;2.20;;
11447;SDS011;43755;49.736;8.734;2023-05-07T09:19:32;3.47;;;2.30;;
11447;SDS011;43755;49.736;8.734;2023-05-07T09:21:34;2.60;;;2.40;;
11447;SDS011;43755;49.736;8.734;2023-05-07T09:23:36;2.40;;;2.10;;
11447;SDS011;43755;49.736;8.734;2023-05-07T09:25:37;2.60;;;2.40;;
11447;SDS011;43755;49.736;8.734;2023-05-07T09:27:40;2.27;;;2.17;;
11447;SDS011;43755;49.736;8.734;2023-05-07T09:29:43;2.60;;;2.40;;
11447;SDS011;43755;49.736;8.734;2023-05-07T09:31:45;2.60;;;2.20;;
11447;SDS011;43755;49.736;8.734;2023-05-07T09:33:47;3.00;;;2.17;;
11447;SDS011;43755;49.736;8.734;2023-05-07T09:35:50;2.30;;;2.20;;
11447;SDS011;43755;49.736;8.734;2023-05-07T09:37:52;2.00;;;1.90;;
11447;SDS011;43755;49.736;8.734;2023-05-07T09:39:53;2.07;;;1.97;;
11447;SDS011;43755;49.736;8.734;2023-05-07T09:41:55;2.60;;;2.40;;
11447;SDS011;43755;49.736;8.734;2023-05-07T09:43:58;3.27;;;2.23;;
11447;SDS011;43755;49.736;8.734;2023-05-07T09:46:02;3.43;;;2.63;;
11447;SDS011;43755;49.736;8.734;2023-05-07T09:48:05;2.50;;;2.10;;
11447;SDS011;43755;49.736;8.734;2023-05-07T09:50:08;2.03;;;1.93;;
11447;SDS011;43755;49.736;8.734;2023-05-07T09:52:10;2.40;;;2.30;;
11447;SDS011;43755;49.736;8.734;2023-05-07T09:54:14;2.07;;;1.97;;
11447;SDS011;43755;49.736;8.734;2023-05-07T09:56:16;2.40;;;2.20;;
11447;SDS011;43755;49.736;8.734;2023-05-07T09:58:20;2.23;;;2.10;;
11447;SDS011;43755;49.736;8.734;2023-05-07T10:00:22;3.73;;;2.33;;
11447;SDS011;43755;49.736;8.734;2023-05-07T10:02:25;2.47;;;2.27;;
11447;SDS011;43755;49.736;8.734;2023-05-07T10:04:32;2.43;;;2.30;;
11447;SDS011;43755;49.736;8.734;2023-05-07T10:06:35;2.67;;;1.87;;
11447;SDS011;43755;49.736;8.734;2023-05-07T10:08:37;2.17;;;2.07;;
11447;SDS011;43755;49.736;8.734;2023-05-07T10:10:39;2.67;;;2.10;;
11447;SDS011;43755;49.736;8.734;2023-05-07T10:12:41;2.73;;;2.00;;
11447;SDS011;43755;49.736;8.734;2023-05-07T10:14:42;2.40;;;2.30;;
11447;SDS011;43755;49.736;8.734;2023-05-07T10:16:44;2.93;;;2.60;;
11447;SDS011;43755;49.736;8.734;2023-05-07T10:18:48;2.97;;;2.30;;
11447;SDS011;43755;49.736;8.734;2023-05-07T10:20:52;3.60;;;2.30;;
11447;SDS011;43755;49.736;8.734;2023-05-07T10:22:55;2.33;;;2.13;;
11447;SDS011;43755;49.736;8.734;2023-05-07T10:24:58;2.43;;;2.20;;
11447;SDS011;43755;49.736;8.734;2023-05-07T10:27:04;2.40;;;2.30;;
11447;SDS011;43755;49.736;8.734;2023-05-07T10:29:12;2.63;;;2.43;;
11447;SDS011;43755;49.736;8.734;2023-05-07T10:31:23;2.53;;;2.43;;
11447;SDS011;43755;49.736;8.734;2023-05-07T10:33:38;2.57;;;2.43;;
11447;SDS011;43755;49.736;8.734;2023-05-07T10:35:41;2.93;;;2.67;;
11447;SDS011;43755;49.736;8.734;2023-05-07T10:37:45;2.60;;;2.50;;
11447;SDS011;43755;49.736;8.734;2023-05-07T10:39:48;2.73;;;2.57;;
11447;SDS011;43755;49.736;8.734;2023-05-07T10:41:50;2.37;;;2.27;;
11447;SDS011;43755;49.736;8.734;2023-05-07T10:43:51;2.73;;;2.53;;
11447;SDS011;43755;49.736;8.734;2023-05-07T10:48:16;2.97;;;2.60;;
11447;SDS011;43755;49.736;8.734;2023-05-07T10:50:21;2.80;;;2.60;;
11447;SDS011;43755;49.736;8.734;2023-05-07T10:52:24;3.13;;;2.63;;
11447;SDS011;43755;49.736;8.734;2023-05-07T10:54:27;2.80;;;2.60;;
11447;SDS011;43755;49.736;8.734;2023-05-07T10:56:28;2.90;;;2.70;;
11447;SDS011;43755;49.736;8.734;2023-05-07T10:58:30;2.67;;;2.47;;
11447;SDS011;43755;49.736;8.734;2023-05-07T11:00:42;3.07;;;2.63;;
11447;SDS011;43755;49.736;8.734;2023-05-07T11:05:18;2.50;;;2.40;;
11447;SDS011;43755;49.736;8.734;2023-05-07T11:07:27;2.60;;;2.40;;
11447;SDS011;43755;49.736;8.734;2023-05-07T11:11:58;3.10;;;2.80;;
11447;SDS011;43755;49.736;8.734;2023-05-07T11:13:59;2.67;;;2.47;;
11447;SDS011;43755;49.736;8.734;2023-05-07T11:16:01;4.00;;;2.37;;
11447;SDS011;43755;49.736;8.734;2023-05-07T11:18:03;2.90;;;2.70;;
11447;SDS011;43755;49.736;8.734;2023-05-07T11:20:06;2.50;;;2.40;;
11447;SDS011;43755;49.736;8.734;2023-05-07T11:22:16;2.27;;;2.17;;
11447;SDS011;43755;49.736;8.734;2023-05-07T11:24:39;4.43;;;2.30;;
11447;SDS011;43755;49.736;8.734;2023-05-07T11:26:45;3.03;;;2.70;;
11447;SDS011;43755;49.736;8.734;2023-05-07T11:28:48;2.37;;;2.20;;
11447;SDS011;43755;49.736;8.734;2023-05-07T11:30:50;3.67;;;2.30;;
11447;SDS011;43755;49.736;8.734;2023-05-07T11:32:51;2.93;;;2.73;;
11447;SDS011;43755;49.736;8.734;2023-05-07T11:34:53;2.37;;;2.27;;
11447;SDS011;43755;49.736;8.734;2023-05-07T11:36:55;3.10;;;2.30;;
11447;SDS011;43755;49.736;8.734;2023-05-07T11:38:57;3.03;;;2.40;;
11447;SDS011;43755;49.736;8.734;2023-05-07T11:40:59;5.00;;;2.40;;
11447;SDS011;43755;49.736;8.734;2023-05-07T11:43:11;2.63;;;2.30;;
11447;SDS011;43755;49.736;8.734;2023-05-07T11:45:12;2.50;;;2.20;;
11447;SDS011;43755;49.736;8.734;2023-05-07T11:47:25;3.17;;;2.60;;
11447;SDS011;43755;49.736;8.734;2023-05-07T11:49:26;2.37;;;2.20;;
11447;SDS011;43755;49.736;8.734;2023-05-07T11:51:29;4.57;;;2.30;;
11447;SDS011;43755;49.736;8.734;2023-05-07T11:53:37;3.97;;;2.20;;
11447;SDS011;43755;49.736;8.734;2023-05-07T11:55:40;2.23;;;2.10;;
11447;SDS011;43755;49.736;8.734;2023-05-07T11:57:42;2.40;;;2.30;;
11447;SDS011;43755;49.736;8.734;2023-05-07T11:59:45;2.23;;;2.00;;
11447;SDS011;43755;49.736;8.734;2023-05-07T12:01:47;2.63;;;2.43;;
11447;SDS011;43755;49.736;8.734;2023-05-07T12:03:49;2.27;;;2.17;;
11447;SDS011;43755;49.736;8.734;2023-05-07T12:05:50;2.17;;;1.73;;
11447;SDS011;43755;49.736;8.734;2023-05-07T12:07:55;2.37;;;2.20;;
11447;SDS011;43755;49.736;8.734;2023-05-07T12:09:57;2.17;;;1.93;;
11447;SDS011;43755;49.736;8.734;2023-05-07T12:12:02;2.10;;;2.00;;
11447;SDS011;43755;49.736;8.734;2023-05-07T12:14:05;3.07;;;1.93;;
11447;SDS011;43755;49.736;8.734;2023-05-07T12:16:07;3.30;;;2.13;;
11447;SDS011;43755;49.736;8.734;2023-05-07T12:18:10;2.00;;;1.90;;
11447;SDS011;43755;49.736;8.734;2023-05-07T12:20:12;3.17;;;2.30;;
11447;SDS011;43755;49.736;8.734;2023-05-07T12:22:14;2.13;;;2.00;;
11447;SDS011;43755;49.736;8.734;2023-05-07T12:24:16;2.77;;;2.20;;